Time;durP1;ratioP1;P1;durP2;ratioP2;P2;SDS_P1;SDS_P2;PMS_P1;PMS_P2;Temp;Humidity;BMP_temperature;BMP_pressure;BME280_temperature;BME280_humidity;BME280_pressure;Samples;Min_cycle;Max_cycle;Signal;HPM_P1;HPM_P2
2022/05/18 00:01:26;;;;;;;24.60;12.10;;;17.70;99.90;;;;;;5044814;28;20231;-59
2022/05/18 00:03:54;;;;;;;19.53;11.80;;;17.70;99.90;;;;;;5078789;28;20200;-59
2022/05/18 00:06:23;;;;;;;17.57;11.50;;;17.70;99.90;;;;;;5050335;28;20193;-59
2022/05/18 00:08:52;;;;;;;18.03;12.27;;;17.70;99.90;;;;;;5050194;28;20204;-59
2022/05/18 00:11:21;;;;;;;21.07;11.70;;;17.70;99.90;;;;;;5050189;28;20196;-59
2022/05/18 00:13:53;;;;;;;16.53;11.90;;;17.70;99.90;;;;;;5050273;28;20197;-59
2022/05/18 00:16:23;;;;;;;23.53;12.10;;;17.70;99.90;;;;;;5048934;28;20231;-60
2022/05/18 00:18:53;;;;;;;19.30;12.07;;;17.70;99.90;;;;;;5046599;28;20204;-59
2022/05/18 00:21:21;;;;;;;17.03;11.40;;;17.70;99.90;;;;;;5047519;28;20293;-59
2022/05/18 00:23:50;;;;;;;22.57;12.67;;;17.70;99.90;;;;;;5038113;28;20240;-59
2022/05/18 00:26:19;;;;;;;19.63;11.60;;;17.70;99.90;;;;;;5043660;28;20222;-60
2022/05/18 00:28:48;;;;;;;16.43;11.83;;;17.70;99.90;;;;;;5052322;28;20198;-59
2022/05/18 00:31:19;;;;;;;15.77;11.83;;;17.70;99.90;;;;;;5049605;28;20195;-59
2022/05/18 00:33:47;;;;;;;21.47;12.63;;;17.70;99.90;;;;;;5047637;28;20276;-59
2022/05/18 00:36:17;;;;;;;22.53;12.10;;;17.70;99.90;;;;;;5078995;28;20185;-59
2022/05/18 00:38:46;;;;;;;19.80;12.50;;;17.80;99.90;;;;;;5052054;28;20669;-59
2022/05/18 00:41:19;;;;;;;20.57;12.13;;;17.80;99.90;;;;;;5049526;28;20783;-59
2022/05/18 00:43:51;;;;;;;21.30;12.23;;;17.90;99.90;;;;;;5048231;28;20192;-59
2022/05/18 00:46:19;;;;;;;16.93;11.70;;;17.90;99.90;;;;;;5063213;28;20711;-59
2022/05/18 00:48:53;;;;;;;20.90;11.70;;;17.90;99.90;;;;;;5050120;28;20197;-59
2022/05/18 00:51:28;;;;;;;16.67;11.60;;;17.90;99.90;;;;;;5049178;28;20223;-59
2022/05/18 00:54:03;;;;;;;19.47;11.67;;;17.90;99.90;;;;;;5063050;28;20246;-59
2022/05/18 00:56:36;;;;;;;26.50;12.67;;;18.00;99.90;;;;;;5044065;28;20214;-59
2022/05/18 00:59:09;;;;;;;15.73;8.50;;;18.00;99.90;;;;;;5052977;28;20202;-59
2022/05/18 01:01:39;;;;;;;9.63;4.80;;;18.10;99.90;;;;;;5042634;28;20774;-60
2022/05/18 01:04:10;;;;;;;15.13;7.77;;;18.80;99.90;;;;;;5050711;28;20321;-59
2022/05/18 01:06:42;;;;;;;13.43;6.63;;;19.10;99.90;;;;;;5047603;28;20259;-60
2022/05/18 01:09:16;;;;;;;9.83;6.10;;;19.10;99.90;;;;;;5045346;28;20197;-59
2022/05/18 01:11:45;;;;;;;11.77;5.37;;;19.20;99.90;;;;;;5050853;28;20211;-59
2022/05/18 01:14:18;;;;;;;6.73;5.13;;;19.10;99.90;;;;;;5051912;28;20651;-59
2022/05/18 01:16:46;;;;;;;9.63;5.27;;;19.10;99.90;;;;;;5052565;28;20201;-59
2022/05/18 01:19:25;;;;;;;8.90;4.67;;;19.00;99.90;;;;;;5054197;28;20203;-59
2022/05/18 01:22:03;;;;;;;6.27;4.50;;;19.00;99.90;;;;;;5053101;28;20214;-59
2022/05/18 01:24:39;;;;;;;5.53;4.33;;;19.10;99.90;;;;;;5067970;28;20203;-59
2022/05/18 01:27:09;;;;;;;4.70;4.07;;;19.00;99.90;;;;;;5049015;28;20258;-59
2022/05/18 01:29:37;;;;;;;4.83;4.30;;;19.00;99.90;;;;;;5051786;28;20215;-59
2022/05/18 01:32:07;;;;;;;6.33;4.10;;;18.90;99.90;;;;;;5049033;28;20287;-59
2022/05/18 01:34:41;;;;;;;4.67;3.90;;;18.80;99.90;;;;;;5053001;28;20309;-60
2022/05/18 01:37:11;;;;;;;7.63;4.20;;;18.80;99.90;;;;;;5047705;28;20201;-59
2022/05/18 01:39:46;;;;;;;5.43;4.07;;;18.80;99.90;;;;;;5056642;28;20199;-58
2022/05/18 01:42:27;;;;;;;7.80;4.37;;;18.70;99.90;;;;;;5049629;28;20276;-59
2022/05/18 01:44:56;;;;;;;4.97;4.47;;;18.70;99.90;;;;;;5050324;28;20231;-59
2022/05/18 01:47:25;;;;;;;5.30;4.00;;;18.70;99.90;;;;;;5050131;28;20199;-60
2022/05/18 01:49:55;;;;;;;8.43;4.30;;;18.60;99.90;;;;;;5053591;28;20262;-59
2022/05/18 01:52:23;;;;;;;6.57;3.97;;;18.60;99.90;;;;;;5052641;28;20255;-59
2022/05/18 01:54:52;;;;;;;7.10;3.90;;;18.60;99.90;;;;;;5048816;28;20225;-60
2022/05/18 01:57:21;;;;;;;4.00;3.73;;;18.60;99.90;;;;;;5048544;28;20545;-59
2022/05/18 01:59:50;;;;;;;5.47;3.80;;;18.60;99.90;;;;;;5053155;28;20270;-59
2022/05/18 02:02:19;;;;;;;4.53;3.77;;;18.50;99.90;;;;;;5033983;28;20531;-59
2022/05/18 02:04:48;;;;;;;4.07;3.40;;;18.50;99.90;;;;;;5052801;28;20541;-59
2022/05/18 02:07:17;;;;;;;8.50;3.60;;;18.50;99.90;;;;;;5049613;28;20211;-59
2022/05/18 02:09:45;;;;;;;5.70;3.70;;;18.50;99.90;;;;;;5053896;28;20659;-59
2022/05/18 02:12:14;;;;;;;7.03;3.47;;;18.50;99.90;;;;;;5051064;28;20185;-59
2022/05/18 02:14:46;;;;;;;5.97;3.40;;;18.60;99.90;;;;;;5062620;28;20228;-59
2022/05/18 02:17:15;;;;;;;6.07;3.20;;;18.60;99.90;;;;;;5052139;28;20189;-59
2022/05/18 02:19:43;;;;;;;4.97;3.07;;;18.50;99.90;;;;;;5050000;28;20196;-60
2022/05/18 02:22:12;;;;;;;4.93;3.30;;;18.40;99.90;;;;;;5049484;28;20231;-60
2022/05/18 02:24:40;;;;;;;5.17;3.17;;;18.40;99.90;;;;;;5049732;28;20203;-58
2022/05/18 02:27:09;;;;;;;4.63;3.40;;;18.30;99.90;;;;;;5051262;28;20204;-60
2022/05/18 02:29:37;;;;;;;5.63;3.40;;;18.20;99.90;;;;;;5049621;28;20207;-60
2022/05/18 02:32:09;;;;;;;3.23;3.03;;;18.20;99.90;;;;;;5052146;28;20189;-59
2022/05/18 02:34:38;;;;;;;5.47;3.17;;;18.10;99.90;;;;;;5047176;28;20307;-59
2022/05/18 02:37:06;;;;;;;6.70;3.20;;;18.10;99.90;;;;;;5086068;28;20211;-59
2022/05/18 02:39:34;;;;;;;3.40;3.10;;;18.10;99.90;;;;;;5046001;28;20203;-60
2022/05/18 02:42:04;;;;;;;4.23;3.20;;;18.10;99.90;;;;;;5046134;28;20207;-59
2022/05/18 02:44:32;;;;;;;4.87;3.03;;;18.10;99.90;;;;;;5052773;28;20228;-60
2022/05/18 02:47:01;;;;;;;7.23;2.97;;;18.10;99.90;;;;;;5053007;28;20221;-59
2022/05/18 02:49:31;;;;;;;3.50;3.20;;;18.10;99.90;;;;;;5055425;28;20197;-59
2022/05/18 02:51:59;;;;;;;3.73;3.33;;;18.10;99.90;;;;;;5050892;28;20526;-60
2022/05/18 02:57:14;;;;;;;4.90;3.30;;;18.00;99.90;;;;;;5047846;28;20565;-60
2022/05/18 02:59:43;;;;;;;4.10;3.53;;;18.00;99.90;;;;;;5048031;28;20648;-60
2022/05/18 03:02:11;;;;;;;5.50;3.87;;;18.00;99.90;;;;;;5048647;28;20936;-60
2022/05/18 03:04:41;;;;;;;8.43;3.73;;;18.00;99.90;;;;;;5051840;28;20190;-60
2022/05/18 03:07:10;;;;;;;4.27;3.67;;;18.00;99.90;;;;;;5053081;28;20220;-59
2022/05/18 03:09:39;;;;;;;5.50;3.17;;;18.00;99.90;;;;;;5051388;28;20250;-59
2022/05/18 03:12:08;;;;;;;4.67;3.37;;;18.00;99.90;;;;;;5048896;28;20652;-59
2022/05/18 03:14:36;;;;;;;3.87;3.40;;;18.00;99.90;;;;;;5045030;28;20209;-60
2022/05/18 03:17:05;;;;;;;3.90;3.50;;;18.00;99.90;;;;;;5051884;28;20273;-59
2022/05/18 03:19:34;;;;;;;8.47;3.47;;;18.10;99.90;;;;;;5049669;28;20205;-60
2022/05/18 03:24:50;;;;;;;5.27;3.50;;;18.10;99.90;;;;;;5048631;28;20196;-59
2022/05/18 03:27:19;;;;;;;3.37;3.23;;;18.00;99.90;;;;;;5049198;28;20231;-60
2022/05/18 03:29:48;;;;;;;4.27;3.20;;;18.00;99.90;;;;;;5051719;28;20203;-59
2022/05/18 03:32:17;;;;;;;6.33;3.50;;;18.00;99.90;;;;;;5050377;28;20261;-60
2022/05/18 03:34:46;;;;;;;5.60;3.90;;;18.00;99.90;;;;;;5050955;28;20324;-59
2022/05/18 03:37:15;;;;;;;3.73;3.20;;;18.00;99.90;;;;;;5054690;28;20192;-60
2022/05/18 03:39:45;;;;;;;5.37;3.33;;;18.00;99.90;;;;;;5045959;28;20205;-60
2022/05/18 03:42:14;;;;;;;4.17;3.50;;;18.00;99.90;;;;;;5049508;28;20275;-59
2022/05/18 03:44:42;;;;;;;4.93;3.20;;;18.00;99.90;;;;;;5056781;28;20196;-59
2022/05/18 03:47:10;;;;;;;4.27;3.40;;;18.00;99.90;;;;;;5053230;28;20216;-59
2022/05/18 03:49:39;;;;;;;4.63;3.60;;;18.00;99.90;;;;;;5048577;28;20255;-59
2022/05/18 03:52:08;;;;;;;6.10;3.43;;;18.10;99.90;;;;;;5051055;28;20272;-60
2022/05/18 03:54:38;;;;;;;4.97;3.27;;;18.10;99.90;;;;;;5045204;28;20238;-59
2022/05/18 03:57:09;;;;;;;5.10;3.50;;;18.20;99.90;;;;;;5043778;28;20202;-60
2022/05/18 03:59:39;;;;;;;4.80;3.13;;;18.20;99.90;;;;;;5049507;28;20671;-59
2022/05/18 04:02:07;;;;;;;6.50;3.30;;;18.20;99.90;;;;;;5045723;28;20940;-59
2022/05/18 04:04:36;;;;;;;4.60;3.17;;;18.30;99.90;;;;;;5048773;28;20555;-59
2022/05/18 04:07:05;;;;;;;5.40;2.67;;;18.30;99.90;;;;;;5047033;28;20228;-59
2022/05/18 04:09:33;;;;;;;3.20;2.97;;;18.40;99.90;;;;;;5048271;28;20514;-59
2022/05/18 04:12:03;;;;;;;5.40;3.20;;;18.50;99.90;;;;;;5050573;28;20227;-59
2022/05/18 04:14:32;;;;;;;3.17;2.90;;;18.60;99.90;;;;;;5043829;28;20193;-60
2022/05/18 04:17:01;;;;;;;5.97;3.20;;;18.70;99.90;;;;;;5048964;28;20223;-60
2022/05/18 04:19:29;;;;;;;3.17;2.80;;;18.80;99.90;;;;;;5050563;28;20196;-60
2022/05/18 04:21:57;;;;;;;8.10;3.40;;;18.80;99.90;;;;;;5051595;28;20197;-60
2022/05/18 04:24:26;;;;;;;6.87;3.37;;;18.80;99.90;;;;;;5050614;28;20204;-59
2022/05/18 04:26:56;;;;;;;6.70;4.63;;;18.90;99.90;;;;;;5051039;28;20675;-59
2022/05/18 04:29:25;;;;;;;23.77;17.57;;;19.00;99.90;;;;;;5065073;28;20662;-60
2022/05/18 04:31:54;;;;;;;22.97;16.10;;;19.00;99.90;;;;;;5028793;28;20211;-59
2022/05/18 04:34:22;;;;;;;33.53;21.70;;;19.00;99.90;;;;;;5047663;28;20220;-60
2022/05/18 04:36:50;;;;;;;22.80;15.13;;;19.00;99.90;;;;;;5045197;28;20212;-59
2022/05/18 04:39:19;;;;;;;18.17;11.10;;;19.00;99.90;;;;;;5049975;28;20197;-59
2022/05/18 04:41:47;;;;;;;47.40;39.30;;;19.00;99.90;;;;;;5083633;28;20200;-59
2022/05/18 04:44:16;;;;;;;90.47;70.20;;;19.00;99.90;;;;;;5053441;28;20196;-59
2022/05/18 04:46:46;;;;;;;177.47;128.83;;;19.00;99.90;;;;;;5083270;28;20266;-59
2022/05/18 04:49:14;;;;;;;195.23;147.47;;;19.00;99.90;;;;;;5055125;28;20200;-60
2022/05/18 04:51:43;;;;;;;204.37;155.70;;;18.90;99.90;;;;;;5053801;28;20653;-59
2022/05/18 04:54:12;;;;;;;194.87;145.90;;;18.90;99.90;;;;;;5055067;28;20193;-60
2022/05/18 04:56:40;;;;;;;96.37;67.47;;;18.80;99.90;;;;;;5049060;28;20580;-59
2022/05/18 04:59:09;;;;;;;55.20;34.63;;;18.80;99.90;;;;;;5082992;28;20664;-59
2022/05/18 05:01:37;;;;;;;63.20;35.37;;;18.80;99.90;;;;;;5051995;28;20648;-60
2022/05/18 05:04:09;;;;;;;33.67;19.03;;;18.80;99.90;;;;;;5054740;28;20189;-59
2022/05/18 05:06:38;;;;;;;23.33;12.13;;;18.80;99.90;;;;;;5049637;28;20188;-60
2022/05/18 05:09:06;;;;;;;18.87;11.13;;;18.80;99.90;;;;;;5054680;28;20654;-59
2022/05/18 05:11:35;;;;;;;12.90;8.30;;;18.80;99.90;;;;;;5053579;28;20196;-59
2022/05/18 05:14:03;;;;;;;8.27;6.07;;;18.80;99.90;;;;;;5048188;28;20228;-59
2022/05/18 05:16:32;;;;;;;5.53;4.87;;;18.80;99.90;;;;;;5052627;28;20239;-60
2022/05/18 05:19:01;;;;;;;7.03;5.43;;;18.70;99.90;;;;;;5053972;28;20265;-60
2022/05/18 05:21:30;;;;;;;8.00;5.43;;;18.70;99.90;;;;;;5054177;28;20201;-59
2022/05/18 05:23:59;;;;;;;10.10;5.37;;;18.70;99.90;;;;;;5052262;28;20224;-59
2022/05/18 05:26:28;;;;;;;6.87;5.33;;;18.80;99.90;;;;;;5054293;28;20188;-59
2022/05/18 05:28:56;;;;;;;8.07;5.17;;;18.80;99.90;;;;;;5054474;28;20228;-60
2022/05/18 05:31:25;;;;;;;5.90;5.13;;;18.80;99.90;;;;;;5051990;28;20205;-60
2022/05/18 05:33:53;;;;;;;7.57;5.20;;;18.80;99.90;;;;;;5046361;28;20232;-59
2022/05/18 05:36:23;;;;;;;6.57;5.20;;;18.90;99.90;;;;;;5051464;28;20192;-59
2022/05/18 05:38:52;;;;;;;6.87;4.80;;;19.00;99.90;;;;;;5055403;28;20344;-59
2022/05/18 05:41:21;;;;;;;5.17;4.40;;;19.00;99.90;;;;;;5050890;28;20193;-59
2022/05/18 05:43:50;;;;;;;9.43;4.90;;;19.10;99.90;;;;;;5052175;28;20691;-59
2022/05/18 05:46:18;;;;;;;7.57;5.63;;;19.20;99.90;;;;;;5051786;28;20603;-60
2022/05/18 05:48:47;;;;;;;7.93;5.23;;;19.20;99.90;;;;;;5052942;28;20580;-60
2022/05/18 05:51:18;;;;;;;9.47;4.87;;;19.30;99.90;;;;;;5050870;28;20698;-60
2022/05/18 05:53:47;;;;;;;17.23;6.63;;;19.40;99.90;;;;;;5049184;28;20208;-60
2022/05/18 05:56:18;;;;;;;10.03;5.17;;;19.40;99.90;;;;;;5047277;28;20750;-59
2022/05/18 05:58:47;;;;;;;10.10;5.20;;;19.40;99.90;;;;;;5057100;28;20555;-59
2022/05/18 06:01:18;;;;;;;11.70;5.57;;;19.40;99.90;;;;;;5050549;28;20197;-60
2022/05/18 06:03:47;;;;;;;6.83;4.67;;;19.40;99.90;;;;;;5050150;28;20239;-60
2022/05/18 06:06:15;;;;;;;7.23;5.00;;;19.50;99.90;;;;;;5050257;28;20207;-59
2022/05/18 06:08:44;;;;;;;5.13;4.53;;;19.50;99.90;;;;;;5050626;28;20224;-59
2022/05/18 06:11:12;;;;;;;8.47;4.70;;;19.50;99.90;;;;;;5050389;28;20199;-59
2022/05/18 06:13:42;;;;;;;6.93;4.43;;;19.50;99.90;;;;;;5049428;28;20247;-60
2022/05/18 06:16:11;;;;;;;10.30;4.80;;;19.60;99.90;;;;;;5052208;28;20196;-59
2022/05/18 06:18:40;;;;;;;12.07;5.00;;;19.60;99.90;;;;;;5053793;28;20189;-60
2022/05/18 06:21:08;;;;;;;5.43;4.57;;;19.70;99.90;;;;;;5044672;28;20205;-59
2022/05/18 06:23:37;;;;;;;10.97;5.00;;;19.80;99.90;;;;;;5044985;28;20291;-59
2022/05/18 06:26:06;;;;;;;11.40;4.93;;;19.90;99.90;;;;;;5054144;28;20229;-59
2022/05/18 06:28:36;;;;;;;7.20;4.17;;;19.90;99.90;;;;;;5047769;28;20266;-59
2022/05/18 06:31:06;;;;;;;22.10;4.53;;;20.00;99.90;;;;;;5053875;28;20224;-59
2022/05/18 06:33:35;;;;;;;7.93;4.07;;;20.10;99.90;;;;;;5050896;28;20246;-59
2022/05/18 06:36:04;;;;;;;10.73;4.67;;;20.10;99.90;;;;;;5051588;28;20573;-59
2022/05/18 06:38:33;;;;;;;7.73;4.43;;;20.10;99.90;;;;;;5073433;28;20182;-59
2022/05/18 06:43:47;;;;;;;8.57;3.50;;;20.20;99.90;;;;;;5052023;28;20215;-59
2022/05/18 06:46:17;;;;;;;3.03;2.73;;;20.30;99.90;;;;;;5054121;28;20694;-59
2022/05/18 06:48:46;;;;;;;4.43;2.63;;;20.40;99.90;;;;;;5074683;28;20220;-59
2022/05/18 06:51:19;;;;;;;3.10;2.80;;;20.50;99.90;;;;;;5053699;28;20195;-59
2022/05/18 06:53:51;;;;;;;4.13;3.30;;;20.60;99.90;;;;;;5045059;28;20197;-59
2022/05/18 06:56:21;;;;;;;7.43;3.40;;;20.70;99.90;;;;;;5039536;28;20285;-59
2022/05/18 06:58:50;;;;;;;6.10;3.20;;;20.60;99.90;;;;;;5057222;28;20251;-59
2022/05/18 07:01:20;;;;;;;5.07;3.30;;;20.70;99.90;;;;;;5053307;28;20208;-59
2022/05/18 07:03:49;;;;;;;4.87;3.23;;;20.80;99.90;;;;;;5051321;28;20209;-59
2022/05/18 07:06:19;;;;;;;7.53;3.10;;;21.00;99.90;;;;;;5052606;28;20204;-59
2022/05/18 07:08:48;;;;;;;4.83;3.20;;;21.20;99.90;;;;;;5050778;28;20208;-59
2022/05/18 07:11:16;;;;;;;4.07;2.50;;;21.20;99.90;;;;;;5050437;28;20217;-59
2022/05/18 07:13:46;;;;;;;2.73;2.40;;;21.30;99.90;;;;;;5050872;28;20204;-60
2022/05/18 07:16:14;;;;;;;8.83;2.50;;;21.40;99.90;;;;;;5081257;28;20263;-60
2022/05/18 07:18:44;;;;;;;3.90;2.20;;;21.40;99.90;;;;;;5051778;28;20275;-59
2022/05/18 07:21:13;;;;;;;3.07;2.20;;;21.40;99.90;;;;;;5047350;28;20229;-59
2022/05/18 07:23:41;;;;;;;3.47;2.27;;;21.60;99.90;;;;;;5049818;28;20193;-58
2022/05/18 07:26:10;;;;;;;2.90;2.00;;;21.90;99.90;;;;;;5054543;28;20196;-60
2022/05/18 07:28:40;;;;;;;3.63;1.80;;;22.10;99.90;;;;;;5048973;28;20300;-59
2022/05/18 07:31:08;;;;;;;2.07;1.87;;;22.00;99.90;;;;;;5078828;28;20200;-59
2022/05/18 07:33:59;;;;;;;8.33;2.10;;;21.90;99.90;;;;;;5048657;28;20248;-59
2022/05/18 07:36:28;;;;;;;2.60;1.77;;;21.80;99.90;;;;;;5049803;28;20219;-59
2022/05/18 07:38:56;;;;;;;3.60;1.80;;;21.90;99.90;;;;;;5042983;28;20280;-59
2022/05/18 07:41:25;;;;;;;5.47;1.40;;;21.90;99.90;;;;;;5052517;28;20220;-60
2022/05/18 07:43:53;;;;;;;2.47;1.80;;;21.90;99.90;;;;;;5052289;28;20233;-59
2022/05/18 07:46:22;;;;;;;4.03;1.60;;;21.90;99.90;;;;;;5051320;28;20824;-59
2022/05/18 07:48:50;;;;;;;5.23;2.43;;;22.20;99.90;;;;;;5045915;28;20205;-58
2022/05/18 07:51:20;;;;;;;4.17;2.03;;;22.30;99.90;;;;;;5052024;28;20681;-60
2022/05/18 07:53:49;;;;;;;1.60;1.40;;;22.40;99.90;;;;;;5051201;28;20685;-60
2022/05/18 07:56:17;;;;;;;1.33;1.20;;;22.40;99.90;;;;;;5049197;28;20589;-59
2022/05/18 07:58:45;;;;;;;1.20;1.20;;;22.40;99.90;;;;;;5049625;28;20253;-59
2022/05/18 08:01:14;;;;;;;3.40;1.17;;;22.50;99.90;;;;;;5050491;28;20199;-59
2022/05/18 08:03:42;;;;;;;1.00;1.00;;;22.50;99.90;;;;;;5051775;28;20196;-59
2022/05/18 08:06:11;;;;;;;4.53;1.00;;;22.50;99.90;;;;;;5047938;28;20208;-60
2022/05/18 08:08:41;;;;;;;2.10;1.10;;;22.80;99.90;;;;;;5055233;28;20264;-60
2022/05/18 08:16:42;;;;;;;2.33;0.90;;;23.10;99.90;;;;;;5048450;28;20276;-59
2022/05/18 08:19:12;;;;;;;3.87;1.00;;;23.40;99.90;;;;;;5055994;28;20254;-59
2022/05/18 08:21:41;;;;;;;1.20;1.10;;;23.40;99.90;;;;;;5047354;28;20205;-59
2022/05/18 08:24:11;;;;;;;2.60;1.10;;;23.50;99.90;;;;;;5052453;28;20280;-60
2022/05/18 08:26:41;;;;;;;1.63;1.20;;;23.70;99.90;;;;;;5048441;28;20208;-60
2022/05/18 08:29:09;;;;;;;1.20;1.00;;;24.10;99.90;;;;;;5050063;28;20218;-60
2022/05/18 08:31:38;;;;;;;3.08;1.05;;;24.40;99.90;;;;;;5050409;28;20277;-60
2022/05/18 08:34:06;;;;;;;3.47;1.27;;;24.40;99.90;;;;;;5048853;28;20317;-60
2022/05/18 08:36:35;;;;;;;5.47;1.50;;;24.50;99.90;;;;;;5047336;28;20244;-59
2022/05/18 08:39:04;;;;;;;2.33;1.13;;;24.40;99.90;;;;;;5051008;28;20194;-59
2022/05/18 08:41:39;;;;;;;1.50;1.35;;;24.70;99.90;;;;;;5050295;28;20250;-59
2022/05/18 08:44:20;;;;;;;1.23;1.13;;;24.90;99.90;;;;;;5047729;28;20205;-60
2022/05/18 08:47:02;;;;;;;1.10;1.10;;;24.90;99.90;;;;;;5047781;28;20206;-60
2022/05/18 08:49:39;;;;;;;1.42;1.00;;;25.00;99.90;;;;;;5051310;28;20299;-60
2022/05/18 08:52:35;;;;;;;0.80;0.80;;;25.10;99.90;;;;;;5047994;28;20200;-60
2022/05/18 08:55:41;;;;;;;1.63;1.23;;;24.90;99.90;;;;;;5049431;28;20197;-60
2022/05/18 08:58:16;;;;;;;0.90;0.90;;;24.90;99.90;;;;;;5045618;28;20223;-61
2022/05/18 09:00:50;;;;;;;1.33;1.08;;;25.00;99.90;;;;;;5046440;28;20238;-60
2022/05/18 09:03:21;;;;;;;3.35;1.40;;;25.40;99.90;;;;;;5049732;28;20200;-60
2022/05/18 09:05:57;;;;;;;2.05;0.90;;;25.70;99.90;;;;;;5050499;28;20548;-58
2022/05/18 09:08:32;;;;;;;0.90;0.90;;;26.10;99.90;;;;;;5052252;28;20189;-59
2022/05/18 09:11:05;;;;;;;5.78;1.65;;;26.50;99.90;;;;;;5051436;28;20602;-58
2022/05/18 09:13:39;;;;;;;1.17;1.17;;;26.40;99.90;;;;;;5050998;28;20193;-58
2022/05/18 09:16:20;;;;;;;0.82;0.82;;;26.30;99.90;;;;;;5078981;28;20637;-58
2022/05/18 09:18:59;;;;;;;1.05;1.00;;;26.00;99.90;;;;;;5047058;28;20205;-59
2022/05/18 09:21:38;;;;;;;0.95;0.95;;;26.00;99.90;;;;;;5048565;28;20644;-58
2022/05/18 09:24:20;;;;;;;1.77;0.98;;;26.40;99.90;;;;;;5064063;28;20191;-58
2022/05/18 09:27:18;;;;;;;2.25;1.20;;;26.70;99.90;;;;;;5048779;28;20225;-58
2022/05/18 09:29:57;;;;;;;2.60;1.10;;;26.90;99.90;;;;;;5045523;28;20228;-58
2022/05/18 09:32:59;;;;;;;12.85;1.90;;;26.90;99.90;;;;;;5042166;28;20220;-58
2022/05/18 09:35:50;;;;;;;1.45;1.10;;;27.50;99.90;;;;;;5044138;28;20294;-58
2022/05/18 09:38:24;;;;;;;2.47;1.30;;;27.50;99.90;;;;;;5055162;28;20223;-58
2022/05/18 09:40:52;;;;;;;2.28;1.13;;;27.40;99.90;;;;;;5045368;28;20664;-59
2022/05/18 09:43:28;;;;;;;1.10;1.10;;;27.50;99.90;;;;;;5051851;28;20280;-59
2022/05/18 09:45:59;;;;;;;1.10;1.10;;;27.70;99.90;;;;;;5035007;28;20203;-59
2022/05/18 09:48:35;;;;;;;1.65;1.20;;;27.80;99.90;;;;;;5050818;28;20202;-58
2022/05/18 09:51:04;;;;;;;1.33;1.00;;;27.90;99.90;;;;;;5042617;28;20210;-59
2022/05/18 09:53:32;;;;;;;3.38;1.10;;;28.20;99.90;;;;;;5051201;28;20200;-58
2022/05/18 09:56:01;;;;;;;1.42;0.80;;;28.70;99.90;;;;;;5049561;28;20191;-59
2022/05/18 09:58:33;;;;;;;0.98;0.98;;;29.00;99.90;;;;;;5055512;28;20200;-58
2022/05/18 10:09:42;;;;;;;0.95;0.90;;;30.30;99.90;;;;;;5050112;28;20213;-59
2022/05/18 10:12:16;;;;;;;1.70;1.60;;;30.70;99.90;;;;;;5041239;28;20216;-59
2022/05/18 10:14:49;;;;;;;1.15;1.15;;;30.30;99.90;;;;;;5052000;28;20200;-59
2022/05/18 10:17:30;;;;;;;1.98;1.10;;;30.00;99.90;;;;;;5081771;28;20197;-58
2022/05/18 10:20:06;;;;;;;2.47;1.20;;;29.80;99.90;;;;;;5053234;28;20727;-58
2022/05/18 10:22:40;;;;;;;1.52;1.20;;;29.80;99.90;;;;;;5047177;28;20877;-58
2022/05/18 10:25:13;;;;;;;3.70;1.45;;;29.70;99.90;;;;;;5052859;28;20653;-58
2022/05/18 10:27:46;;;;;;;2.80;1.20;;;29.70;99.90;;;;;;5079509;28;20679;-58
2022/05/18 10:30:18;;;;;;;1.10;1.10;;;29.50;99.90;;;;;;5083240;28;20225;-58
2022/05/18 10:32:58;;;;;;;1.35;1.25;;;29.10;99.90;;;;;;5048895;28;20200;-58
2022/05/18 10:35:39;;;;;;;1.20;1.20;;;28.50;99.90;;;;;;5050830;28;20232;-58
2022/05/18 10:38:18;;;;;;;3.80;1.30;;;28.10;99.90;;;;;;5051655;28;20699;-58
2022/05/18 10:40:47;;;;;;;3.53;1.10;;;28.30;99.90;;;;;;5047229;28;20220;-58
2022/05/18 10:43:31;;;;;;;1.42;1.05;;;28.60;99.90;;;;;;5051951;28;20193;-59
2022/05/18 10:46:18;;;;;;;1.02;1.02;;;28.70;99.90;;;;;;5048306;28;20545;-58
2022/05/18 10:48:58;;;;;;;3.20;1.15;;;28.90;99.90;;;;;;5049776;28;20266;-57
2022/05/18 10:51:33;;;;;;;2.38;1.30;;;28.80;99.90;;;;;;5050112;28;20220;-59
2022/05/18 10:54:14;;;;;;;1.02;1.02;;;28.60;99.90;;;;;;5049216;28;20305;-58
2022/05/18 10:56:43;;;;;;;1.20;1.10;;;28.40;99.90;;;;;;5043992;28;20184;-58
2022/05/18 10:59:32;;;;;;;2.65;1.27;;;28.50;99.90;;;;;;5050414;28;20678;-58
2022/05/18 11:02:09;;;;;;;2.38;1.00;;;28.70;99.90;;;;;;5046858;28;20215;-58
2022/05/18 11:04:51;;;;;;;2.45;1.50;;;29.00;99.90;;;;;;5064430;28;20710;-58
2022/05/18 11:07:22;;;;;;;1.25;1.25;;;29.10;99.90;;;;;;5053882;28;20643;-58
2022/05/18 11:09:50;;;;;;;1.25;1.20;;;29.40;99.90;;;;;;5031335;28;20636;-58
2022/05/18 11:12:46;;;;;;;3.47;1.40;;;29.60;99.90;;;;;;5046112;28;20288;-59
2022/05/18 11:15:22;;;;;;;2.67;1.38;;;29.60;99.90;;;;;;5050124;28;20200;-58
2022/05/18 11:18:04;;;;;;;1.65;1.40;;;29.50;99.90;;;;;;5050201;28;20200;-57
2022/05/18 11:20:45;;;;;;;2.33;1.40;;;29.50;99.90;;;;;;5051155;28;20873;-59
2022/05/18 11:23:28;;;;;;;1.30;1.20;;;29.80;99.90;;;;;;5077451;28;20645;-58
2022/05/18 11:26:06;;;;;;;2.75;1.30;;;30.00;99.90;;;;;;5047110;28;20230;-59
2022/05/18 11:29:03;;;;;;;2.95;1.30;;;29.90;99.90;;;;;;5080207;28;20197;-58
2022/05/18 11:31:55;;;;;;;1.52;1.45;;;29.30;99.90;;;;;;5048320;28;20207;-58
2022/05/18 11:34:30;;;;;;;1.90;1.58;;;28.70;99.90;;;;;;5047479;28;20235;-58
2022/05/18 11:37:14;;;;;;;2.35;1.40;;;28.50;99.90;;;;;;5050111;28;20249;-58
2022/05/18 11:39:54;;;;;;;25.92;3.05;;;28.60;99.90;;;;;;5047618;28;20199;-58
2022/05/18 11:42:37;;;;;;;3.67;1.60;;;28.70;99.90;;;;;;5050133;28;20205;-58
2022/05/18 11:45:18;;;;;;;1.60;1.60;;;28.80;99.90;;;;;;5053852;28;20190;-58
2022/05/18 11:47:56;;;;;;;1.38;1.27;;;28.80;99.90;;;;;;5049256;28;20275;-58
2022/05/18 11:50:35;;;;;;;6.95;1.67;;;28.80;99.90;;;;;;5044965;28;20220;-60
2022/05/18 11:53:18;;;;;;;1.60;1.60;;;28.80;99.90;;;;;;5048584;28;20202;-61
2022/05/18 11:56:01;;;;;;;3.10;1.77;;;29.00;99.90;;;;;;5045659;28;20212;-60
2022/05/18 11:58:47;;;;;;;1.90;1.70;;;28.70;99.90;;;;;;5051748;28;20197;-60
2022/05/18 12:01:27;;;;;;;1.75;1.58;;;28.60;99.90;;;;;;5050473;28;20255;-59
2022/05/18 12:04:23;;;;;;;2.35;1.73;;;28.50;99.90;;;;;;5048418;28;20206;-59
2022/05/18 12:07:19;;;;;;;1.75;1.60;;;28.20;99.90;;;;;;5046601;28;20624;-60
2022/05/18 12:10:07;;;;;;;5.57;2.00;;;28.10;99.90;;;;;;5044501;28;20315;-60
2022/05/18 12:12:48;;;;;;;1.50;1.40;;;28.10;99.90;;;;;;5048331;28;20768;-59
2022/05/18 12:15:24;;;;;;;4.25;1.70;;;28.10;99.90;;;;;;5048505;28;20542;-60
2022/05/18 12:17:58;;;;;;;3.97;2.50;;;28.10;99.90;;;;;;5057853;28;20204;-60
2022/05/18 12:20:34;;;;;;;2.00;1.80;;;27.80;99.90;;;;;;5046702;28;20661;-60
2022/05/18 12:23:06;;;;;;;2.07;1.60;;;27.40;99.90;;;;;;5050070;28;20207;-60
2022/05/18 12:25:37;;;;;;;3.13;2.00;;;27.10;99.90;;;;;;5041929;28;20192;-59
2022/05/18 12:28:08;;;;;;;2.30;1.53;;;27.00;99.90;;;;;;5046888;28;20193;-60
2022/05/18 12:30:41;;;;;;;3.87;1.60;;;26.90;99.90;;;;;;5050096;28;20652;-60
2022/05/18 12:33:11;;;;;;;2.43;1.77;;;27.00;99.90;;;;;;5050112;28;20203;-60
2022/05/18 12:35:51;;;;;;;3.03;1.57;;;27.30;99.90;;;;;;5051727;28;20742;-60
2022/05/18 12:38:27;;;;;;;3.70;1.87;;;27.50;99.90;;;;;;5047217;28;20223;-60
2022/05/18 12:41:02;;;;;;;2.67;1.70;;;27.70;99.90;;;;;;5050583;28;20196;-60
2022/05/18 12:43:37;;;;;;;2.57;1.50;;;27.80;99.90;;;;;;5048991;28;20203;-59
2022/05/18 12:46:11;;;;;;;1.90;1.67;;;28.00;99.90;;;;;;5051257;28;20542;-60
2022/05/18 12:48:44;;;;;;;3.23;1.90;;;27.90;99.90;;;;;;5041595;28;20247;-60
2022/05/18 12:51:17;;;;;;;1.73;1.63;;;28.10;99.90;;;;;;5050591;28;20223;-61
2022/05/18 12:54:03;;;;;;;2.30;1.70;;;28.10;99.90;;;;;;5049933;28;20284;-60
2022/05/18 12:57:07;;;;;;;2.00;1.80;;;28.00;99.90;;;;;;5054424;28;20671;-60
2022/05/18 12:59:57;;;;;;;2.00;1.80;;;27.90;99.90;;;;;;5036568;28;20561;-60
2022/05/18 13:02:41;;;;;;;1.87;1.70;;;28.00;99.90;;;;;;5047690;28;20653;-61
2022/05/18 13:05:34;;;;;;;2.47;1.77;;;28.20;99.90;;;;;;5050585;28;20189;-61
2022/05/18 13:08:12;;;;;;;1.87;1.77;;;28.10;99.90;;;;;;5049682;28;20227;-61
2022/05/18 13:10:40;;;;;;;1.60;1.50;;;27.80;99.90;;;;;;5050100;28;20200;-60
2022/05/18 13:13:20;;;;;;;2.03;1.37;;;27.80;99.90;;;;;;5051027;28;20189;-61
2022/05/18 13:15:56;;;;;;;2.93;1.47;;;27.90;99.90;;;;;;5050751;28;20823;-60
2022/05/18 13:18:33;;;;;;;2.57;1.90;;;27.90;99.90;;;;;;5050094;28;20205;-60
2022/05/18 13:21:17;;;;;;;3.50;1.87;;;28.10;99.90;;;;;;5044551;28;20193;-61
2022/05/18 13:23:54;;;;;;;5.00;1.77;;;28.30;99.90;;;;;;5053587;28;20201;-60
2022/05/18 13:26:31;;;;;;;2.27;1.50;;;28.20;99.90;;;;;;5049340;28;20193;-60
2022/05/18 13:29:08;;;;;;;3.00;1.67;;;27.80;99.90;;;;;;5054321;28;20652;-60
2022/05/18 13:31:39;;;;;;;2.93;1.40;;;27.90;99.90;;;;;;5051220;28;20298;-61
2022/05/18 13:34:13;;;;;;;1.40;1.30;;;28.00;99.90;;;;;;5055879;28;20229;-60